createdAt,value
2018-01-18T00:02:02.900Z,1.35
2018-01-18T00:04:30.433Z,1.60
2018-01-18T00:06:58.002Z,1.70
2018-01-18T00:09:25.526Z,1.20
2018-01-18T00:11:53.101Z,1.50
2018-01-18T00:14:20.631Z,1.40
2018-01-18T00:16:48.962Z,1.60
2018-01-18T00:19:16.491Z,1.87
2018-01-18T00:21:44.065Z,1.60
2018-01-18T00:24:11.644Z,1.33
2018-01-18T00:26:39.207Z,1.75
2018-01-18T00:29:06.730Z,1.73
2018-01-18T00:31:34.301Z,2.05
2018-01-18T00:34:01.841Z,2.20
2018-01-18T00:36:29.415Z,1.50
2018-01-18T00:38:56.949Z,1.50
2018-01-18T00:41:25.282Z,1.50
2018-01-18T00:43:52.797Z,1.60
2018-01-18T00:46:20.372Z,1.80
2018-01-18T00:48:47.899Z,1.77
2018-01-18T00:51:16.229Z,1.20
2018-01-18T00:53:43.760Z,1.55
2018-01-18T00:56:11.325Z,1.65
2018-01-18T00:58:38.855Z,1.60
2018-01-18T01:01:07.199Z,1.70
2018-01-18T01:03:34.732Z,1.62
2018-01-18T01:06:02.303Z,2.15
2018-01-18T01:08:29.827Z,1.58
2018-01-18T01:10:57.403Z,1.30
2018-01-18T01:13:24.930Z,1.60
2018-01-18T01:15:53.260Z,1.85
2018-01-18T01:18:20.791Z,1.40
2018-01-18T01:20:48.365Z,1.73
2018-01-18T01:23:15.896Z,0.82
2018-01-18T01:25:44.232Z,1.60
2018-01-18T01:28:11.760Z,1.40
2018-01-18T01:30:39.332Z,1.80
2018-01-18T01:33:06.898Z,1.35
2018-01-18T01:35:34.426Z,1.55
2018-01-18T01:38:02.017Z,1.67
2018-01-18T01:40:29.547Z,1.45
2018-01-18T01:42:57.116Z,1.37
2018-01-18T01:45:24.643Z,0.98
2018-01-18T01:47:52.972Z,1.30
2018-01-18T01:50:20.499Z,1.73
2018-01-18T01:52:48.074Z,1.08
2018-01-18T01:55:15.596Z,0.90
2018-01-18T01:57:43.952Z,1.85
2018-01-18T02:00:11.484Z,1.70
2018-01-18T02:02:39.055Z,1.15
2018-01-18T02:05:06.598Z,1.08
2018-01-18T02:07:34.161Z,1.30
2018-01-18T02:10:01.686Z,1.40
2018-01-18T02:12:29.256Z,1.35
2018-01-18T02:14:56.788Z,2.37
2018-01-18T02:17:25.120Z,1.70
2018-01-18T02:19:52.643Z,1.60
2018-01-18T02:22:20.222Z,2.05
2018-01-18T02:24:47.751Z,1.30
2018-01-18T02:27:16.088Z,1.10
2018-01-18T02:29:43.615Z,1.30
2018-01-18T02:32:11.192Z,1.20
2018-01-18T02:34:38.715Z,1.23
2018-01-18T02:37:06.290Z,1.73
2018-01-18T02:39:33.818Z,1.25
2018-01-18T02:42:02.151Z,0.70
2018-01-18T02:44:29.679Z,1.60
2018-01-18T02:46:58.017Z,1.52
2018-01-18T02:49:25.535Z,1.30
2018-01-18T02:51:53.100Z,1.40
2018-01-18T02:54:20.641Z,1.25
2018-01-18T02:56:48.211Z,2.97
2018-01-18T02:59:15.736Z,1.80
2018-01-18T03:01:44.070Z,1.83
2018-01-18T03:04:11.600Z,1.77
2018-01-18T03:06:39.175Z,1.35
2018-01-18T03:09:06.713Z,1.62
2018-01-18T03:11:34.286Z,1.05
2018-01-18T03:14:01.816Z,1.05
2018-01-18T03:16:29.386Z,0.90
2018-01-18T03:18:56.911Z,1.75
2018-01-18T03:21:24.486Z,1.23
2018-01-18T03:23:52.775Z,1.20
2018-01-18T03:26:20.343Z,1.50
2018-01-18T03:28:47.866Z,0.95
2018-01-18T03:31:15.437Z,1.50
2018-01-18T03:33:43.740Z,1.30
2018-01-18T03:36:11.312Z,1.15
2018-01-18T03:38:38.837Z,1.50
2018-01-18T03:41:07.168Z,1.23
2018-01-18T03:43:34.692Z,1.25
2018-01-18T03:46:02.265Z,0.80
2018-01-18T03:48:29.796Z,1.10
2018-01-18T03:50:58.126Z,1.00
2018-01-18T03:53:25.660Z,1.30
2018-01-18T03:55:53.223Z,0.95
2018-01-18T03:58:20.752Z,1.20
2018-01-18T04:00:49.095Z,1.80
2018-01-18T04:03:17.385Z,0.70
2018-01-18T04:05:44.951Z,1.50
2018-01-18T04:08:13.272Z,1.00
2018-01-18T04:10:40.800Z,0.95
2018-01-18T04:13:09.126Z,1.00
2018-01-18T04:15:36.694Z,1.52
2018-01-18T04:18:04.227Z,1.60
2018-01-18T04:20:31.796Z,0.95
2018-01-18T04:22:59.323Z,1.00
2018-01-18T04:25:27.660Z,1.45
2018-01-18T04:27:55.197Z,1.10
2018-01-18T04:30:22.768Z,1.00
2018-01-18T04:32:50.302Z,1.00
2018-01-18T04:35:17.866Z,0.75
2018-01-18T04:37:45.390Z,1.25
2018-01-18T04:40:13.724Z,1.00
2018-01-18T04:42:41.260Z,1.00
2018-01-18T04:45:08.831Z,1.12
2018-01-18T04:47:36.355Z,1.40
2018-01-18T04:50:03.927Z,1.05
2018-01-18T04:52:31.455Z,1.40
2018-01-18T04:54:59.790Z,0.77
2018-01-18T04:57:27.318Z,1.10
2018-01-18T04:59:54.882Z,1.20
2018-01-18T05:02:22.411Z,1.20
2018-01-18T05:04:50.788Z,1.00
2018-01-18T05:07:18.298Z,0.80
2018-01-18T05:09:45.951Z,0.85
2018-01-18T05:12:13.524Z,0.80
2018-01-18T05:14:41.058Z,0.70
2018-01-18T05:17:08.627Z,1.00
2018-01-18T05:19:36.152Z,0.73
2018-01-18T05:22:04.491Z,0.90
2018-01-18T05:24:32.033Z,0.60
2018-01-18T05:26:59.599Z,1.02
2018-01-18T05:29:27.255Z,0.85
2018-01-18T05:31:54.806Z,0.62
2018-01-18T05:34:22.381Z,0.60
2018-01-18T05:36:49.907Z,1.20
2018-01-18T05:39:17.436Z,1.00
2018-01-18T05:41:45.015Z,0.47
2018-01-18T05:44:13.306Z,1.40
2018-01-18T05:46:40.871Z,1.45
2018-01-18T05:49:08.462Z,0.88
2018-01-18T05:51:36.093Z,1.00
2018-01-18T05:54:03.684Z,0.90
2018-01-18T05:56:31.256Z,0.95
2018-01-18T05:58:58.780Z,1.00
2018-01-18T06:01:26.351Z,0.50
2018-01-18T06:03:53.878Z,1.08
2018-01-18T06:06:21.454Z,1.55
2018-01-18T06:08:48.984Z,1.00
2018-01-18T06:11:17.310Z,0.95
2018-01-18T06:13:44.842Z,0.77
2018-01-18T06:16:12.416Z,0.90
2018-01-18T06:18:39.943Z,1.00
2018-01-18T06:21:08.278Z,0.85
2018-01-18T06:23:35.808Z,0.55
2018-01-18T06:26:03.379Z,0.85
2018-01-18T06:28:30.908Z,0.90
2018-01-18T06:30:58.484Z,0.88
2018-01-18T06:33:26.011Z,1.00
2018-01-18T06:35:54.342Z,0.95
2018-01-18T06:38:21.873Z,1.08
2018-01-18T06:40:49.440Z,0.90
2018-01-18T06:43:16.967Z,1.05
2018-01-18T06:45:45.303Z,0.80
2018-01-18T06:48:12.832Z,0.50
2018-01-18T06:50:40.403Z,0.70
2018-01-18T06:53:07.931Z,1.00
2018-01-18T06:55:35.528Z,0.75
2018-01-18T06:58:03.055Z,0.88
2018-01-18T07:00:31.391Z,0.70
2018-01-18T07:02:58.920Z,0.60
2018-01-18T07:05:26.493Z,0.93
2018-01-18T07:07:54.014Z,0.70
2018-01-18T07:10:21.589Z,0.90
2018-01-18T07:12:49.121Z,0.62
2018-01-18T07:15:17.458Z,1.98
2018-01-18T07:17:45.022Z,0.70
2018-01-18T07:20:12.595Z,0.50
2018-01-18T07:22:40.128Z,0.80
2018-01-18T07:25:07.707Z,0.50
2018-01-18T07:27:35.245Z,0.70
2018-01-18T07:30:02.824Z,0.70
2018-01-18T07:32:30.351Z,0.65
2018-01-18T07:34:57.929Z,0.60
2018-01-18T07:37:25.462Z,0.80
2018-01-18T07:39:53.041Z,0.70
2018-01-18T07:42:20.571Z,0.70
2018-01-18T07:44:48.142Z,0.85
2018-01-18T07:47:15.674Z,0.62
2018-01-18T07:49:44.009Z,0.52
2018-01-18T07:54:33.813Z,0.60
2018-01-18T07:57:21.119Z,0.60
2018-01-18T07:59:48.691Z,0.70
2018-01-18T08:02:16.244Z,0.88
2018-01-18T08:04:43.833Z,0.60
2018-01-18T08:07:12.129Z,0.50
2018-01-18T08:09:40.464Z,0.50
2018-01-18T08:12:07.983Z,0.68
2018-01-18T08:14:35.551Z,0.70
2018-01-18T08:17:03.104Z,0.62
2018-01-18T08:19:30.683Z,0.50
2018-01-18T08:21:58.207Z,0.70
2018-01-18T08:24:26.568Z,0.60
2018-01-18T08:26:54.095Z,0.50
2018-01-18T08:29:21.664Z,0.60
2018-01-18T08:31:49.192Z,0.60
2018-01-18T08:34:16.768Z,0.60
2018-01-18T08:36:44.409Z,0.57
2018-01-18T08:39:11.983Z,0.60
2018-01-18T08:41:39.513Z,0.70
2018-01-18T08:44:07.087Z,0.50
2018-01-18T08:46:34.615Z,0.40
2018-01-18T08:49:02.957Z,0.60
2018-01-18T08:51:30.488Z,0.50
2018-01-18T08:53:58.068Z,0.70
2018-01-18T08:56:25.597Z,0.65
2018-01-18T08:58:53.168Z,0.60
2018-01-18T09:01:20.687Z,0.60
2018-01-18T09:03:49.015Z,0.47
2018-01-18T09:06:16.543Z,0.50
2018-01-18T09:08:44.113Z,0.68
2018-01-18T09:11:11.644Z,0.65
2018-01-18T09:13:39.979Z,0.50
2018-01-18T09:16:07.509Z,0.60
2018-01-18T09:18:35.088Z,0.50
2018-01-18T09:21:02.615Z,0.60
2018-01-18T09:23:30.188Z,0.50
2018-01-18T09:25:57.716Z,0.50
2018-01-18T09:28:26.045Z,0.52
2018-01-18T09:30:53.570Z,0.50
2018-01-18T09:33:21.137Z,0.50
2018-01-18T09:35:48.667Z,0.60
2018-01-18T09:38:17.014Z,0.47
2018-01-18T09:40:45.315Z,0.50
2018-01-18T09:43:13.650Z,0.40
2018-01-18T09:45:41.179Z,1.15
2018-01-18T09:48:08.740Z,0.50
2018-01-18T09:50:36.268Z,0.50
2018-01-18T09:53:03.833Z,0.40
2018-01-18T09:55:32.123Z,0.60
2018-01-18T09:58:00.456Z,0.52
2018-01-18T10:00:27.980Z,0.50
2018-01-18T10:02:55.551Z,0.50
2018-01-18T10:05:23.076Z,0.60
2018-01-18T10:07:51.416Z,0.50
2018-01-18T10:10:18.947Z,0.68
2018-01-18T10:12:46.512Z,0.50
2018-01-18T10:15:14.043Z,0.60
2018-01-18T10:17:41.620Z,0.50
2018-01-18T10:20:09.147Z,0.50
2018-01-18T10:22:37.481Z,0.70
2018-01-18T10:25:05.024Z,0.60
2018-01-18T10:27:32.596Z,0.47
2018-01-18T10:30:00.136Z,1.15
2018-01-18T10:32:27.715Z,0.50
2018-01-18T10:34:55.250Z,0.47
2018-01-18T10:37:22.816Z,0.45
2018-01-18T10:39:50.348Z,0.40
2018-01-18T10:42:18.674Z,0.50
2018-01-18T10:44:46.209Z,0.50
2018-01-18T10:47:13.804Z,0.40
2018-01-18T10:49:41.340Z,0.50
2018-01-18T10:52:08.909Z,0.50
2018-01-18T10:54:36.448Z,0.40
2018-01-18T10:57:04.019Z,0.50
2018-01-18T10:59:31.550Z,0.70
2018-01-18T11:01:59.115Z,0.43
2018-01-18T11:04:26.649Z,0.65
2018-01-18T11:06:54.240Z,0.50
2018-01-18T11:09:21.775Z,0.50
2018-01-18T11:11:50.112Z,0.60
2018-01-18T11:14:17.635Z,0.45
2018-01-18T11:16:45.226Z,0.40
2018-01-18T11:19:12.748Z,0.47
2018-01-18T11:21:40.315Z,0.50
2018-01-18T11:24:07.845Z,0.55
2018-01-18T11:26:36.180Z,0.45
2018-01-18T11:29:03.706Z,0.50
2018-01-18T11:31:31.289Z,0.40
2018-01-18T11:33:58.831Z,0.50
2018-01-18T11:36:26.415Z,0.50
2018-01-18T11:38:53.952Z,0.50
2018-01-18T11:41:21.523Z,0.50
2018-01-18T11:43:49.061Z,0.50
2018-01-18T11:46:16.668Z,0.50
2018-01-18T11:48:44.203Z,0.43
2018-01-18T11:51:11.861Z,0.40
2018-01-18T11:53:39.387Z,0.80
2018-01-18T11:56:06.968Z,0.60
2018-01-18T11:58:34.500Z,0.50
2018-01-18T12:01:02.844Z,0.40
2018-01-18T12:03:30.387Z,0.50
2018-01-18T12:05:57.960Z,0.60
2018-01-18T12:08:25.489Z,0.47
2018-01-18T12:10:53.069Z,0.50
2018-01-18T12:13:20.608Z,0.50
2018-01-18T12:15:48.183Z,0.50
2018-01-18T12:18:15.720Z,0.40
2018-01-18T12:20:43.308Z,0.50
2018-01-18T12:23:10.835Z,0.60
2018-01-18T12:25:38.402Z,0.50
2018-01-18T12:28:05.944Z,0.47
2018-01-18T12:30:33.521Z,0.50
2018-01-18T12:33:01.056Z,0.60
2018-01-18T12:35:29.399Z,0.50
2018-01-18T12:37:56.939Z,0.40
2018-01-18T12:40:24.515Z,0.50
2018-01-18T12:42:52.068Z,0.40
2018-01-18T12:45:19.642Z,0.52
2018-01-18T12:47:47.180Z,0.40
2018-01-18T12:50:14.763Z,0.50
2018-01-18T12:52:42.298Z,0.40
2018-01-18T12:55:09.873Z,0.50
2018-01-18T12:57:37.432Z,0.50
2018-01-18T13:00:05.011Z,0.50
2018-01-18T13:02:32.551Z,0.50
2018-01-18T13:05:00.134Z,0.50
2018-01-18T13:07:28.433Z,0.47
2018-01-18T13:09:56.013Z,0.45
2018-01-18T13:12:23.551Z,0.40
2018-01-18T13:14:51.135Z,0.40
2018-01-18T13:17:18.666Z,0.40
2018-01-18T13:19:47.010Z,0.50
2018-01-18T13:22:14.540Z,0.60
2018-01-18T13:24:42.115Z,0.55
2018-01-18T13:27:09.647Z,0.70
2018-01-18T13:29:37.259Z,0.40
2018-01-18T13:32:04.785Z,0.60
2018-01-18T13:34:32.367Z,0.50
2018-01-18T13:36:59.895Z,0.52
2018-01-18T13:39:27.471Z,0.60
2018-01-18T13:41:55.004Z,0.50
2018-01-18T13:44:22.591Z,0.50
2018-01-18T13:46:50.133Z,0.50
2018-01-18T13:49:17.711Z,0.50
2018-01-18T13:51:45.240Z,0.60
2018-01-18T13:54:12.815Z,0.50
2018-01-18T13:56:40.356Z,0.50
2018-01-18T13:59:07.932Z,0.60
2018-01-18T14:01:35.474Z,0.50
2018-01-18T14:04:03.058Z,0.47
2018-01-18T14:06:30.593Z,0.50
2018-01-18T14:08:58.170Z,0.60
2018-01-18T14:11:25.708Z,0.60
2018-01-18T14:13:53.290Z,0.40
2018-01-18T14:16:20.833Z,0.60
2018-01-18T14:18:48.407Z,0.62
2018-01-18T14:21:15.940Z,0.60
2018-01-18T14:23:44.280Z,0.50
2018-01-18T14:26:11.816Z,0.50
2018-01-18T14:28:39.392Z,0.50
2018-01-18T14:31:06.929Z,0.50
2018-01-18T14:33:34.520Z,0.60
2018-01-18T14:36:02.061Z,0.50
2018-01-18T14:38:29.646Z,0.50
2018-01-18T14:40:57.217Z,0.60
2018-01-18T14:43:24.784Z,0.45
2018-01-18T14:45:53.089Z,0.50
2018-01-18T14:48:20.667Z,0.45
2018-01-18T14:50:48.206Z,0.40
2018-01-18T14:53:15.783Z,0.50
2018-01-18T14:55:43.318Z,0.50
2018-01-18T14:58:11.655Z,0.50
2018-01-18T15:00:40.708Z,0.55
2018-01-18T15:03:08.290Z,0.50
2018-01-18T15:05:35.832Z,0.60
2018-01-18T15:08:03.411Z,0.60
2018-01-18T15:10:30.953Z,0.50
2018-01-18T15:12:58.527Z,0.40
2018-01-18T15:15:26.066Z,0.50
2018-01-18T15:17:53.645Z,0.50
2018-01-18T15:20:21.174Z,0.50
2018-01-18T15:22:48.754Z,1.30
2018-01-18T15:25:16.302Z,0.60
2018-01-18T15:27:43.870Z,0.53
2018-01-18T15:30:11.407Z,0.70
2018-01-18T15:32:39.083Z,0.50
2018-01-18T15:35:06.661Z,0.60
2018-01-18T15:37:34.444Z,0.40
2018-01-18T15:40:02.147Z,0.50
2018-01-18T15:42:30.560Z,0.47
2018-01-18T15:44:58.233Z,0.50
2018-01-18T15:47:25.806Z,0.50
2018-01-18T15:49:53.340Z,0.70
2018-01-18T15:52:20.988Z,0.50
2018-01-18T15:54:48.529Z,0.50
2018-01-18T15:57:16.871Z,0.50
2018-01-18T15:59:44.412Z,0.57
2018-01-18T16:02:11.992Z,0.60
2018-01-18T16:04:39.524Z,0.50
2018-01-18T16:07:07.104Z,0.50
2018-01-18T16:09:34.633Z,0.50
2018-01-18T16:12:02.173Z,0.50
2018-01-18T16:14:29.759Z,0.50
2018-01-18T16:16:57.294Z,0.60
2018-01-18T16:19:24.873Z,0.60
2018-01-18T16:21:52.432Z,0.70
2018-01-18T16:24:20.004Z,0.50
2018-01-18T16:26:47.550Z,0.50
2018-01-18T16:29:15.131Z,0.50
2018-01-18T16:31:42.669Z,0.70
2018-01-18T16:34:10.253Z,0.50
2018-01-18T16:36:37.900Z,0.80
2018-01-18T16:39:05.474Z,0.50
2018-01-18T16:41:33.001Z,0.50
2018-01-18T16:44:00.577Z,0.50
2018-01-18T16:46:28.110Z,0.50
2018-01-18T16:48:56.453Z,0.50
2018-01-18T16:51:23.997Z,0.60
2018-01-18T16:53:51.580Z,0.50
2018-01-18T16:56:19.875Z,0.57
2018-01-18T16:58:48.212Z,0.50
2018-01-18T17:01:17.104Z,0.50
2018-01-18T17:03:44.742Z,0.60
2018-01-18T17:06:12.275Z,0.50
2018-01-18T17:08:40.620Z,0.60
2018-01-18T17:11:08.147Z,0.50
2018-01-18T17:13:35.722Z,0.50
2018-01-18T17:16:03.260Z,0.50
2018-01-18T17:18:30.835Z,0.70
2018-01-18T17:20:58.363Z,0.50
2018-01-18T17:23:25.932Z,0.50
2018-01-18T17:25:53.458Z,0.50
2018-01-18T17:28:21.805Z,0.50
2018-01-18T17:30:49.335Z,0.50
2018-01-18T17:33:16.911Z,0.53
2018-01-18T17:35:44.454Z,0.50
2018-01-18T17:38:12.033Z,0.50
2018-01-18T17:40:39.565Z,0.50
2018-01-18T17:43:07.160Z,0.50
2018-01-18T17:45:34.694Z,0.70
2018-01-18T17:48:02.267Z,0.50
2018-01-18T17:50:29.815Z,0.50
2018-01-18T17:52:57.404Z,0.70
2018-01-18T17:55:24.940Z,0.50
2018-01-18T17:57:52.512Z,0.60
2018-01-18T18:00:20.044Z,0.80
2018-01-18T18:02:47.620Z,0.83
2018-01-18T18:05:15.160Z,0.60
2018-01-18T18:07:42.742Z,0.80
2018-01-18T18:10:10.284Z,0.70
2018-01-18T18:12:37.857Z,0.90
2018-01-18T18:15:05.400Z,0.90
2018-01-18T18:17:32.979Z,0.70
2018-01-18T18:20:00.531Z,0.60
2018-01-18T18:22:28.109Z,0.70
2018-01-18T18:24:55.637Z,0.70
2018-01-18T18:27:23.215Z,0.60
2018-01-18T18:29:50.747Z,0.80
2018-01-18T18:32:19.278Z,0.60
2018-01-18T18:34:46.816Z,0.63
2018-01-18T18:37:14.387Z,0.60
2018-01-18T18:39:41.927Z,0.80
2018-01-18T18:42:09.503Z,0.70
2018-01-18T18:44:37.042Z,0.70
2018-01-18T18:47:04.617Z,0.60
2018-01-18T18:49:32.190Z,0.87
2018-01-18T18:51:59.771Z,0.80
2018-01-18T18:54:27.308Z,0.73
2018-01-18T18:56:54.885Z,0.73
2018-01-18T18:59:22.425Z,1.63
2018-01-18T19:01:50.073Z,0.60
2018-01-18T19:04:17.606Z,0.70
2018-01-18T19:06:45.192Z,1.50
2018-01-18T19:09:12.728Z,0.73
2018-01-18T19:11:40.304Z,0.80
2018-01-18T19:14:07.850Z,0.90
2018-01-18T19:16:35.441Z,0.60
2018-01-18T19:19:03.059Z,0.70
2018-01-18T19:21:30.674Z,0.70
2018-01-18T19:23:58.226Z,0.60
2018-01-18T19:26:25.808Z,0.77
2018-01-18T19:28:53.334Z,0.80
2018-01-18T19:31:20.908Z,0.80
2018-01-18T19:33:48.432Z,0.80
2018-01-18T19:36:16.038Z,0.87
2018-01-18T19:38:43.624Z,0.90
2018-01-18T19:41:11.172Z,0.60
2018-01-18T19:43:38.716Z,1.10
2018-01-18T19:46:06.339Z,0.70
2018-01-18T19:48:33.919Z,0.70
2018-01-18T19:51:01.531Z,0.80
2018-01-18T19:53:29.140Z,0.83
2018-01-18T19:55:56.707Z,0.70
2018-01-18T19:58:24.297Z,0.80
2018-01-18T20:00:51.920Z,0.80
2018-01-18T20:03:19.503Z,0.60
2018-01-18T20:05:47.083Z,0.63
2018-01-18T20:08:14.621Z,0.70
2018-01-18T20:10:42.233Z,0.63
2018-01-18T20:13:09.814Z,0.60
2018-01-18T20:15:37.436Z,0.70
2018-01-18T20:18:05.771Z,0.67
2018-01-18T20:20:33.340Z,0.80
2018-01-18T20:23:00.874Z,0.50
2018-01-18T20:25:28.666Z,0.70
2018-01-18T20:27:56.260Z,1.00
2018-01-18T20:30:23.910Z,0.60
2018-01-18T20:32:51.506Z,1.03
2018-01-18T20:35:19.075Z,0.70
2018-01-18T20:37:46.650Z,0.53
2018-01-18T20:40:14.227Z,0.50
2018-01-18T20:42:41.802Z,0.90
2018-01-18T20:45:10.144Z,0.70
2018-01-18T20:47:37.732Z,0.60
2018-01-18T20:50:05.360Z,0.70
2018-01-18T20:52:32.892Z,0.60
2018-01-18T20:55:01.227Z,0.50
2018-01-18T20:57:28.763Z,0.80
2018-01-18T20:59:56.376Z,0.80
2018-01-18T21:02:23.991Z,0.53
2018-01-18T21:04:51.601Z,0.70
2018-01-18T21:07:19.901Z,0.60
2018-01-18T21:09:47.471Z,0.93
2018-01-18T21:12:15.181Z,0.80
2018-01-18T21:14:42.816Z,0.60
2018-01-18T21:17:10.320Z,0.70
2018-01-18T21:19:38.709Z,0.60
2018-01-18T21:22:07.063Z,0.70
2018-01-18T21:24:34.680Z,0.60
2018-01-18T21:27:02.253Z,0.80
2018-01-18T21:29:29.866Z,0.50
2018-01-18T21:31:58.214Z,0.70
2018-01-18T21:34:25.791Z,0.63
2018-01-18T21:36:53.385Z,0.63
2018-01-18T21:39:20.992Z,0.67
2018-01-18T21:41:48.568Z,0.70
2018-01-18T21:44:16.192Z,0.70
2018-01-18T21:46:43.740Z,0.60
2018-01-18T21:49:11.316Z,0.70
2018-01-18T21:51:38.870Z,0.70
2018-01-18T21:54:06.457Z,0.70
2018-01-18T21:56:33.992Z,0.70
2018-01-18T21:59:01.609Z,0.53
2018-01-18T22:01:30.008Z,0.70
2018-01-18T22:03:57.586Z,0.70
2018-01-18T22:06:25.160Z,0.60
2018-01-18T22:08:52.731Z,0.60
2018-01-18T22:11:20.308Z,0.57
2018-01-18T22:13:47.895Z,0.50
2018-01-18T22:16:15.436Z,0.50
2018-01-18T22:18:43.021Z,0.60
2018-01-18T22:21:10.596Z,0.90
2018-01-18T22:23:38.203Z,0.83
2018-01-18T22:26:05.739Z,0.70
2018-01-18T22:28:34.107Z,0.70
2018-01-18T22:31:01.768Z,0.63
2018-01-18T22:33:29.374Z,0.60
2018-01-18T22:35:56.945Z,0.70
2018-01-18T22:38:25.301Z,0.90
2018-01-18T22:40:52.846Z,0.75
2018-01-18T22:43:20.424Z,1.00
2018-01-18T22:45:47.951Z,0.90
2018-01-18T22:48:15.522Z,0.70
2018-01-18T22:50:43.060Z,0.70
2018-01-18T22:53:10.640Z,0.60
2018-01-18T22:55:38.175Z,0.90
2018-01-18T22:58:05.748Z,0.70
2018-01-18T23:00:33.280Z,0.80
2018-01-18T23:03:00.874Z,0.87
2018-01-18T23:05:28.412Z,0.70
2018-01-18T23:07:55.991Z,0.70
2018-01-18T23:10:23.529Z,0.60
2018-01-18T23:12:51.114Z,1.15
2018-01-18T23:15:18.652Z,1.00
2018-01-18T23:17:46.221Z,0.70
2018-01-18T23:20:13.759Z,0.90
2018-01-18T23:22:41.338Z,1.10
2018-01-18T23:25:08.866Z,1.43
2018-01-18T23:27:36.449Z,1.30
2018-01-18T23:30:04.415Z,1.30
2018-01-18T23:32:31.991Z,1.27
2018-01-18T23:34:59.515Z,1.30
2018-01-18T23:37:27.850Z,0.87
2018-01-18T23:39:55.376Z,1.37
2018-01-18T23:42:22.945Z,1.00
2018-01-18T23:44:50.481Z,1.17
2018-01-18T23:47:18.061Z,1.03
2018-01-18T23:49:45.592Z,0.60
2018-01-18T23:52:13.934Z,1.20
2018-01-18T23:54:41.472Z,1.00
2018-01-18T23:57:09.053Z,0.95
2018-01-18T23:59:36.597Z,0.70
